sensor_id;sensor_type;location;lat;lon;timestamp;pressure;altitude;pressure_sealevel;temperature;humidity
7335;BME280;3708;42.632;23.378;2023-05-25T00:02:11;94263.09;;;20.84;48.31
7335;BME280;3708;42.632;23.378;2023-05-25T00:04:39;94269.50;;;20.12;49.81
7335;BME280;3708;42.632;23.378;2023-05-25T00:07:06;94279.56;;;19.43;52.62
7335;BME280;3708;42.632;23.378;2023-05-25T00:09:33;94278.22;;;19.95;51.31
7335;BME280;3708;42.632;23.378;2023-05-25T00:12:00;94280.84;;;19.81;51.71
7335;BME280;3708;42.632;23.378;2023-05-25T00:14:29;94277.50;;;20.12;51.19
7335;BME280;3708;42.632;23.378;2023-05-25T00:16:56;94274.78;;;19.91;51.73
7335;BME280;3708;42.632;23.378;2023-05-25T00:19:22;94274.47;;;20.07;51.41
7335;BME280;3708;42.632;23.378;2023-05-25T00:21:51;94275.28;;;20.25;51.02
7335;BME280;3708;42.632;23.378;2023-05-25T00:24:18;94282.53;;;20.42;50.70
7335;BME280;3708;42.632;23.378;2023-05-25T00:26:45;94282.91;;;20.33;50.90
7335;BME280;3708;42.632;23.378;2023-05-25T00:29:12;94288.97;;;20.51;50.77
7335;BME280;3708;42.632;23.378;2023-05-25T00:31:40;94288.97;;;20.62;50.65
7335;BME280;3708;42.632;23.378;2023-05-25T00:34:07;94289.75;;;20.70;50.39
7335;BME280;3708;42.632;23.378;2023-05-25T00:36:34;94287.44;;;20.58;50.16
7335;BME280;3708;42.632;23.378;2023-05-25T00:39:01;94294.31;;;20.48;50.02
7335;BME280;3708;42.632;23.378;2023-05-25T00:41:29;94299.63;;;20.41;49.80
7335;BME280;3708;42.632;23.378;2023-05-25T00:43:56;94291.19;;;20.07;50.51
7335;BME280;3708;42.632;23.378;2023-05-25T00:46:24;94286.56;;;19.87;50.69
7335;BME280;3708;42.632;23.378;2023-05-25T00:48:54;94299.38;;;19.67;51.46
7335;BME280;3708;42.632;23.378;2023-05-25T00:51:21;94294.81;;;19.60;51.63
7335;BME280;3708;42.632;23.378;2023-05-25T00:53:48;94297.06;;;19.55;51.99
7335;BME280;3708;42.632;23.378;2023-05-25T00:56:17;94292.91;;;19.61;51.76
7335;BME280;3708;42.632;23.378;2023-05-25T00:58:48;94294.47;;;19.62;51.61
7335;BME280;3708;42.632;23.378;2023-05-25T01:01:17;94293.25;;;19.49;51.98
7335;BME280;3708;42.632;23.378;2023-05-25T01:03:49;94289.06;;;19.44;52.00
7335;BME280;3708;42.632;23.378;2023-05-25T01:06:20;94288.72;;;19.49;51.96
7335;BME280;3708;42.632;23.378;2023-05-25T01:08:51;94300.81;;;19.43;52.38
7335;BME280;3708;42.632;23.378;2023-05-25T01:11:25;94300.84;;;19.50;52.47
7335;BME280;3708;42.632;23.378;2023-05-25T01:13:53;94299.94;;;19.29;52.41
7335;BME280;3708;42.632;23.378;2023-05-25T01:16:20;94298.91;;;19.44;52.46
7335;BME280;3708;42.632;23.378;2023-05-25T01:18:47;94305.34;;;19.36;52.31
7335;BME280;3708;42.632;23.378;2023-05-25T01:21:20;94300.81;;;19.40;52.18
7335;BME280;3708;42.632;23.378;2023-05-25T01:23:53;94297.06;;;19.55;51.96
7335;BME280;3708;42.632;23.378;2023-05-25T01:26:23;94295.53;;;19.54;51.51
7335;BME280;3708;42.632;23.378;2023-05-25T01:28:53;94291.34;;;19.42;51.86
7335;BME280;3708;42.632;23.378;2023-05-25T01:31:21;94294.00;;;19.46;52.46
7335;BME280;3708;42.632;23.378;2023-05-25T01:33:49;94284.09;;;19.39;52.80
7335;BME280;3708;42.632;23.378;2023-05-25T01:36:18;94285.97;;;19.39;53.11
7335;BME280;3708;42.632;23.378;2023-05-25T01:38:45;94285.25;;;19.42;53.42
7335;BME280;3708;42.632;23.378;2023-05-25T01:41:12;94291.72;;;19.48;53.57
7335;BME280;3708;42.632;23.378;2023-05-25T01:43:39;94279.81;;;19.21;54.44
7335;BME280;3708;42.632;23.378;2023-05-25T01:46:12;94269.91;;;19.11;55.12
7335;BME280;3708;42.632;23.378;2023-05-25T01:48:46;94268.94;;;19.43;54.72
7335;BME280;3708;42.632;23.378;2023-05-25T01:51:25;94263.34;;;19.66;54.04
7335;BME280;3708;42.632;23.378;2023-05-25T01:54:00;94262.59;;;19.76;53.50
7335;BME280;3708;42.632;23.378;2023-05-25T01:56:29;94278.19;;;19.81;53.31
7335;BME280;3708;42.632;23.378;2023-05-25T01:59:00;94269.09;;;19.89;52.86
7335;BME280;3708;42.632;23.378;2023-05-25T02:01:28;94270.63;;;19.97;52.57
7335;BME280;3708;42.632;23.378;2023-05-25T02:03:56;94271.41;;;20.01;52.49
7335;BME280;3708;42.632;23.378;2023-05-25T02:06:25;94279.75;;;19.96;52.23
7335;BME280;3708;42.632;23.378;2023-05-25T02:08:52;94285.03;;;19.93;52.20
7335;BME280;3708;42.632;23.378;2023-05-25T02:11:18;94274.41;;;19.93;51.92
7335;BME280;3708;42.632;23.378;2023-05-25T02:13:46;94284.25;;;19.78;51.51
7335;BME280;3708;42.632;23.378;2023-05-25T02:16:12;94270.97;;;19.74;51.49
7335;BME280;3708;42.632;23.378;2023-05-25T02:18:39;94278.94;;;19.78;51.48
7335;BME280;3708;42.632;23.378;2023-05-25T02:21:09;94286.50;;;19.69;51.31
7335;BME280;3708;42.632;23.378;2023-05-25T02:23:37;94290.63;;;19.56;51.44
7335;BME280;3708;42.632;23.378;2023-05-25T02:26:04;94288.25;;;19.37;51.14
7335;BME280;3708;42.632;23.378;2023-05-25T02:28:30;94284.78;;;19.33;51.09
7335;BME280;3708;42.632;23.378;2023-05-25T02:30:57;94298.50;;;19.35;50.72
7335;BME280;3708;42.632;23.378;2023-05-25T02:33:24;94296.44;;;19.11;51.43
7335;BME280;3708;42.632;23.378;2023-05-25T02:35:51;94304.38;;;19.03;51.19
7335;BME280;3708;42.632;23.378;2023-05-25T02:38:17;94301.25;;;18.94;51.50
7335;BME280;3708;42.632;23.378;2023-05-25T02:40:46;94297.78;;;18.83;51.41
7335;BME280;3708;42.632;23.378;2023-05-25T02:43:13;94316.81;;;18.92;51.28
7335;BME280;3708;42.632;23.378;2023-05-25T02:45:40;94318.97;;;18.36;52.33
7335;BME280;3708;42.632;23.378;2023-05-25T02:48:06;94324.44;;;18.50;52.41
7335;BME280;3708;42.632;23.378;2023-05-25T02:50:33;94317.28;;;18.58;52.44
7335;BME280;3708;42.632;23.378;2023-05-25T02:53:01;94324.22;;;18.69;52.10
7335;BME280;3708;42.632;23.378;2023-05-25T02:55:28;94324.28;;;18.80;51.69
7335;BME280;3708;42.632;23.378;2023-05-25T02:57:56;94333.06;;;18.87;51.85
7335;BME280;3708;42.632;23.378;2023-05-25T03:00:24;94333.13;;;18.94;51.60
7335;BME280;3708;42.632;23.378;2023-05-25T03:02:51;94334.66;;;18.95;51.53
7335;BME280;3708;42.632;23.378;2023-05-25T03:05:17;94337.69;;;18.97;51.46
7335;BME280;3708;42.632;23.378;2023-05-25T03:07:44;94330.47;;;18.98;51.08
7335;BME280;3708;42.632;23.378;2023-05-25T03:10:12;94342.88;;;18.80;51.15
7335;BME280;3708;42.632;23.378;2023-05-25T03:12:39;94332.97;;;18.77;51.45
7335;BME280;3708;42.632;23.378;2023-05-25T03:15:08;94346.22;;;18.73;52.00
7335;BME280;3708;42.632;23.378;2023-05-25T03:17:37;94333.75;;;18.81;51.89
7335;BME280;3708;42.632;23.378;2023-05-25T03:20:05;94331.94;;;18.92;51.91
7335;BME280;3708;42.632;23.378;2023-05-25T03:22:34;94342.94;;;18.90;51.81
7335;BME280;3708;42.632;23.378;2023-05-25T03:25:01;94335.38;;;18.89;51.66
7335;BME280;3708;42.632;23.378;2023-05-25T03:27:27;94343.00;;;18.97;51.35
7335;BME280;3708;42.632;23.378;2023-05-25T03:29:54;94343.72;;;18.94;51.40
7335;BME280;3708;42.632;23.378;2023-05-25T03:32:22;94343.78;;;19.01;51.33
7335;BME280;3708;42.632;23.378;2023-05-25T03:34:49;94345.31;;;19.02;51.31
7335;BME280;3708;42.632;23.378;2023-05-25T03:37:16;94350.66;;;19.10;51.44
7335;BME280;3708;42.632;23.378;2023-05-25T03:39:43;94347.63;;;19.11;51.17
7335;BME280;3708;42.632;23.378;2023-05-25T03:42:10;94344.59;;;19.09;51.42
7335;BME280;3708;42.632;23.378;2023-05-25T03:44:36;94343.78;;;19.01;51.35
7335;BME280;3708;42.632;23.378;2023-05-25T03:47:04;94337.72;;;19.01;51.74
7335;BME280;3708;42.632;23.378;2023-05-25T03:49:32;94343.81;;;19.09;51.69
7335;BME280;3708;42.632;23.378;2023-05-25T03:51:59;94348.78;;;19.10;51.42
7335;BME280;3708;42.632;23.378;2023-05-25T03:54:25;94351.44;;;19.10;51.29
7335;BME280;3708;42.632;23.378;2023-05-25T03:56:52;94351.13;;;19.19;51.41
7335;BME280;3708;42.632;23.378;2023-05-25T03:59:21;94347.38;;;19.27;51.27
7335;BME280;3708;42.632;23.378;2023-05-25T04:01:48;94353.53;;;19.38;51.24
7335;BME280;3708;42.632;23.378;2023-05-25T04:04:14;94346.38;;;19.49;50.90
7335;BME280;3708;42.632;23.378;2023-05-25T04:06:43;94358.84;;;19.41;51.19
7335;BME280;3708;42.632;23.378;2023-05-25T04:09:10;94356.69;;;19.61;50.70
7335;BME280;3708;42.632;23.378;2023-05-25T04:11:37;94360.16;;;19.68;50.60
7335;BME280;3708;42.632;23.378;2023-05-25T04:14:04;94365.94;;;19.88;50.67
7335;BME280;3708;42.632;23.378;2023-05-25T04:16:30;94365.53;;;19.79;50.04
7335;BME280;3708;42.632;23.378;2023-05-25T04:18:57;94363.22;;;19.74;49.78
7335;BME280;3708;42.632;23.378;2023-05-25T04:21:24;94375.34;;;19.68;50.27
7335;BME280;3708;42.632;23.378;2023-05-25T04:23:52;94371.13;;;19.63;50.28
7335;BME280;3708;42.632;23.378;2023-05-25T04:26:19;94364.75;;;19.75;49.97
7335;BME280;3708;42.632;23.378;2023-05-25T04:28:46;94380.66;;;19.68;50.31
7335;BME280;3708;42.632;23.378;2023-05-25T04:31:12;94372.44;;;20.01;49.98
7335;BME280;3708;42.632;23.378;2023-05-25T04:33:39;94377.03;;;20.11;49.59
7335;BME280;3708;42.632;23.378;2023-05-25T04:36:07;94377.47;;;20.27;49.44
7335;BME280;3708;42.632;23.378;2023-05-25T04:38:35;94387.69;;;20.11;49.41
7335;BME280;3708;42.632;23.378;2023-05-25T04:41:04;94391.19;;;20.36;49.13
7335;BME280;3708;42.632;23.378;2023-05-25T04:43:31;94380.22;;;20.66;48.52
7335;BME280;3708;42.632;23.378;2023-05-25T04:45:58;94385.56;;;20.84;48.05
7335;BME280;3708;42.632;23.378;2023-05-25T04:48:26;94390.16;;;20.87;47.84
7335;BME280;3708;42.632;23.378;2023-05-25T04:50:54;94390.88;;;20.77;47.56
7335;BME280;3708;42.632;23.378;2023-05-25T04:53:24;94380.25;;;20.91;46.96
7335;BME280;3708;42.632;23.378;2023-05-25T04:55:51;94386.28;;;20.45;47.96
7335;BME280;3708;42.632;23.378;2023-05-25T04:58:49;94389.72;;;19.60;50.04
7335;BME280;3708;42.632;23.378;2023-05-25T05:01:16;94378.50;;;20.02;49.73
7335;BME280;3708;42.632;23.378;2023-05-25T05:03:44;94378.34;;;20.74;48.35
7335;BME280;3708;42.632;23.378;2023-05-25T05:06:11;94374.56;;;21.17;47.50
7335;BME280;3708;42.632;23.378;2023-05-25T05:08:37;94368.06;;;21.46;47.23
7335;BME280;3708;42.632;23.378;2023-05-25T05:11:05;94362.66;;;21.67;46.89
7335;BME280;3708;42.632;23.378;2023-05-25T05:13:32;94372.56;;;21.84;46.50
7335;BME280;3708;42.632;23.378;2023-05-25T05:16:00;94363.69;;;22.09;46.37
7335;BME280;3708;42.632;23.378;2023-05-25T05:18:27;94370.88;;;22.22;46.00
7335;BME280;3708;42.632;23.378;2023-05-25T05:20:54;94366.25;;;22.33;45.97
7335;BME280;3708;42.632;23.378;2023-05-25T05:23:21;94373.00;;;22.52;45.32
7335;BME280;3708;42.632;23.378;2023-05-25T05:25:48;94370.63;;;22.75;45.40
7335;BME280;3708;42.632;23.378;2023-05-25T05:28:15;94374.47;;;22.67;45.94
7335;BME280;3708;42.632;23.378;2023-05-25T05:30:42;94376.53;;;22.38;46.45
7335;BME280;3708;42.632;23.378;2023-05-25T05:33:12;94390.19;;;22.51;46.28
7335;BME280;3708;42.632;23.378;2023-05-25T05:35:39;94388.63;;;22.57;46.21
7335;BME280;3708;42.632;23.378;2023-05-25T05:38:05;94391.28;;;22.57;45.70
7335;BME280;3708;42.632;23.378;2023-05-25T05:40:32;94396.56;;;22.74;45.67
7335;BME280;3708;42.632;23.378;2023-05-25T05:42:59;94389.75;;;22.56;46.09
7335;BME280;3708;42.632;23.378;2023-05-25T05:45:26;94392.38;;;22.70;45.56
7335;BME280;3708;42.632;23.378;2023-05-25T05:47:53;94389.75;;;22.56;46.04
7335;BME280;3708;42.632;23.378;2023-05-25T05:50:21;94405.69;;;22.77;45.55
7335;BME280;3708;42.632;23.378;2023-05-25T05:52:48;94399.41;;;23.01;45.48
7335;BME280;3708;42.632;23.378;2023-05-25T05:55:15;94407.50;;;22.94;45.00
7335;BME280;3708;42.632;23.378;2023-05-25T05:57:42;94408.13;;;23.09;44.96
7335;BME280;3708;42.632;23.378;2023-05-25T06:00:10;94408.38;;;23.28;44.83
7335;BME280;3708;42.632;23.378;2023-05-25T06:05:04;94412.41;;;23.51;43.93
7335;BME280;3708;42.632;23.378;2023-05-25T06:07:33;94406.97;;;23.61;43.77
7335;BME280;3708;42.632;23.378;2023-05-25T06:10:00;94402.50;;;23.85;43.54
7335;BME280;3708;42.632;23.378;2023-05-25T06:12:27;94403.22;;;23.89;43.34
7335;BME280;3708;42.632;23.378;2023-05-25T06:14:54;94403.53;;;23.61;43.51
7335;BME280;3708;42.632;23.378;2023-05-25T06:17:22;94398.72;;;23.79;43.37
7335;BME280;3708;42.632;23.378;2023-05-25T06:19:49;94398.16;;;23.98;43.34
7335;BME280;3708;42.632;23.378;2023-05-25T06:22:17;94396.47;;;24.14;44.35
7335;BME280;3708;42.632;23.378;2023-05-25T06:24:45;94405.41;;;24.65;45.31
7335;BME280;3708;42.632;23.378;2023-05-25T06:27:12;94392.09;;;24.84;43.00
7335;BME280;3708;42.632;23.378;2023-05-25T06:29:41;94396.06;;;24.76;42.70
7335;BME280;3708;42.632;23.378;2023-05-25T06:32:08;94400.09;;;24.88;42.67
7335;BME280;3708;42.632;23.378;2023-05-25T06:34:35;94405.03;;;25.16;42.81
7335;BME280;3708;42.632;23.378;2023-05-25T06:37:03;94409.63;;;24.32;44.06
7335;BME280;3708;42.632;23.378;2023-05-25T06:39:30;94404.78;;;24.80;43.25
7335;BME280;3708;42.632;23.378;2023-05-25T06:41:58;94416.63;;;24.83;43.18
7335;BME280;3708;42.632;23.378;2023-05-25T06:44:25;94411.66;;;25.08;42.98
7335;BME280;3708;42.632;23.378;2023-05-25T06:46:52;94410.78;;;25.15;43.60
7335;BME280;3708;42.632;23.378;2023-05-25T06:49:19;94414.41;;;25.28;43.11
7335;BME280;3708;42.632;23.378;2023-05-25T06:51:46;94416.97;;;24.58;42.22
7335;BME280;3708;42.632;23.378;2023-05-25T06:54:13;94428.91;;;22.87;46.18
7335;BME280;3708;42.632;23.378;2023-05-25T06:56:40;94419.44;;;23.27;45.55
7335;BME280;3708;42.632;23.378;2023-05-25T06:59:08;94414.69;;;23.48;45.56
7335;BME280;3708;42.632;23.378;2023-05-25T07:01:35;94409.53;;;24.39;44.60
7335;BME280;3708;42.632;23.378;2023-05-25T07:04:02;94406.59;;;24.60;43.21
7335;BME280;3708;42.632;23.378;2023-05-25T07:06:29;94408.19;;;24.84;42.69
7335;BME280;3708;42.632;23.378;2023-05-25T07:08:55;94403.22;;;25.10;42.07
7335;BME280;3708;42.632;23.378;2023-05-25T07:11:22;94403.22;;;25.10;42.35
7335;BME280;3708;42.632;23.378;2023-05-25T07:13:49;94399.59;;;24.96;42.72
7335;BME280;3708;42.632;23.378;2023-05-25T07:16:17;94394.66;;;25.18;42.40
7335;BME280;3708;42.632;23.378;2023-05-25T07:18:45;94399.06;;;25.55;41.96
7335;BME280;3708;42.632;23.378;2023-05-25T07:21:12;94402.47;;;25.32;42.03
7335;BME280;3708;42.632;23.378;2023-05-25T07:23:38;94404.44;;;24.78;42.58
7335;BME280;3708;42.632;23.378;2023-05-25T07:26:06;94407.94;;;25.02;42.41
7335;BME280;3708;42.632;23.378;2023-05-25T07:28:32;94395.72;;;25.01;42.56
7335;BME280;3708;42.632;23.378;2023-05-25T07:30:59;94400.53;;;24.86;43.20
7335;BME280;3708;42.632;23.378;2023-05-25T07:33:27;94403.34;;;25.03;42.44
7335;BME280;3708;42.632;23.378;2023-05-25T07:35:54;94412.94;;;24.13;44.58
7335;BME280;3708;42.632;23.378;2023-05-25T07:38:21;94402.72;;;24.91;43.60
7335;BME280;3708;42.632;23.378;2023-05-25T07:40:48;94408.84;;;25.19;42.81
7335;BME280;3708;42.632;23.378;2023-05-25T07:43:16;94420.47;;;25.09;42.89
7335;BME280;3708;42.632;23.378;2023-05-25T07:45:43;94427.06;;;24.13;44.94
7335;BME280;3708;42.632;23.378;2023-05-25T07:48:10;94419.22;;;24.60;44.08
7335;BME280;3708;42.632;23.378;2023-05-25T07:50:38;94415.31;;;24.94;43.80
7335;BME280;3708;42.632;23.378;2023-05-25T07:53:05;94420.72;;;24.91;43.18
7335;BME280;3708;42.632;23.378;2023-05-25T07:55:32;94420.88;;;25.07;43.30
7335;BME280;3708;42.632;23.378;2023-05-25T07:57:59;94430.78;;;25.10;43.17
7335;BME280;3708;42.632;23.378;2023-05-25T08:00:26;94425.88;;;25.05;43.89
7335;BME280;3708;42.632;23.378;2023-05-25T08:02:54;94425.94;;;24.75;44.07
7335;BME280;3708;42.632;23.378;2023-05-25T08:05:20;94436.69;;;24.71;43.69
7335;BME280;3708;42.632;23.378;2023-05-25T08:07:49;94437.44;;;24.42;44.46
7335;BME280;3708;42.632;23.378;2023-05-25T08:10:15;94439.75;;;24.06;44.96
7335;BME280;3708;42.632;23.378;2023-05-25T08:12:42;94442.94;;;23.90;45.37
7335;BME280;3708;42.632;23.378;2023-05-25T08:15:09;94451.09;;;23.80;45.83
7335;BME280;3708;42.632;23.378;2023-05-25T08:17:37;94455.50;;;23.56;46.43
7335;BME280;3708;42.632;23.378;2023-05-25T08:20:07;94455.88;;;23.03;47.65
7335;BME280;3708;42.632;23.378;2023-05-25T08:22:34;94463.69;;;22.73;48.41
7335;BME280;3708;42.632;23.378;2023-05-25T08:25:03;94462.22;;;22.54;48.81
7335;BME280;3708;42.632;23.378;2023-05-25T08:27:31;94463.00;;;22.55;49.11
7335;BME280;3708;42.632;23.378;2023-05-25T08:29:57;94472.88;;;22.68;49.01
7335;BME280;3708;42.632;23.378;2023-05-25T08:32:24;94475.56;;;22.65;49.12
7335;BME280;3708;42.632;23.378;2023-05-25T08:34:51;94480.66;;;22.21;50.41
7335;BME280;3708;42.632;23.378;2023-05-25T08:37:18;94493.69;;;21.83;51.26
7335;BME280;3708;42.632;23.378;2023-05-25T08:39:46;94488.66;;;20.90;53.43
7335;BME280;3708;42.632;23.378;2023-05-25T08:42:14;94488.28;;;20.85;53.21
7335;BME280;3708;42.632;23.378;2023-05-25T08:44:41;94491.00;;;21.20;52.59
7335;BME280;3708;42.632;23.378;2023-05-25T08:47:09;94492.16;;;21.12;53.24
7335;BME280;3708;42.632;23.378;2023-05-25T08:49:38;94487.44;;;20.63;53.83
7335;BME280;3708;42.632;23.378;2023-05-25T08:52:08;94498.81;;;20.53;54.11
7335;BME280;3708;42.632;23.378;2023-05-25T08:54:36;94514.00;;;19.84;56.76
7335;BME280;3708;42.632;23.378;2023-05-25T08:57:07;94508.59;;;20.28;55.98
7335;BME280;3708;42.632;23.378;2023-05-25T08:59:41;94513.13;;;20.27;55.89
7335;BME280;3708;42.632;23.378;2023-05-25T09:02:20;94520.91;;;19.96;56.96
7335;BME280;3708;42.632;23.378;2023-05-25T09:04:48;94529.84;;;19.70;58.66
7335;BME280;3708;42.632;23.378;2023-05-25T09:07:15;94524.75;;;20.02;58.18
7335;BME280;3708;42.632;23.378;2023-05-25T09:09:42;94529.13;;;19.73;59.15
7335;BME280;3708;42.632;23.378;2023-05-25T09:12:10;94532.44;;;19.19;60.66
7335;BME280;3708;42.632;23.378;2023-05-25T09:14:39;94528.50;;;19.43;59.84
7335;BME280;3708;42.632;23.378;2023-05-25T09:17:10;94530.09;;;19.51;61.14
7335;BME280;3708;42.632;23.378;2023-05-25T09:19:38;94523.94;;;19.43;58.65
7335;BME280;3708;42.632;23.378;2023-05-25T09:22:05;94524.41;;;19.52;59.62
7335;BME280;3708;42.632;23.378;2023-05-25T09:24:33;94525.78;;;19.83;60.05
7335;BME280;3708;42.632;23.378;2023-05-25T09:27:01;94522.34;;;19.79;60.25
7335;BME280;3708;42.632;23.378;2023-05-25T09:29:28;94517.00;;;19.32;60.32
7335;BME280;3708;42.632;23.378;2023-05-25T09:31:59;94516.38;;;19.09;62.28
7335;BME280;3708;42.632;23.378;2023-05-25T09:34:29;94515.78;;;19.22;61.71
7335;BME280;3708;42.632;23.378;2023-05-25T09:36:58;94508.09;;;18.73;62.49
7335;BME280;3708;42.632;23.378;2023-05-25T09:39:25;94512.59;;;19.06;61.26
7335;BME280;3708;42.632;23.378;2023-05-25T09:41:52;94506.91;;;19.48;60.45
7335;BME280;3708;42.632;23.378;2023-05-25T09:44:19;94494.91;;;19.21;59.51
7335;BME280;3708;42.632;23.378;2023-05-25T09:46:50;94506.50;;;19.42;60.68
7335;BME280;3708;42.632;23.378;2023-05-25T09:49:18;94496.66;;;20.01;58.85
7335;BME280;3708;42.632;23.378;2023-05-25T09:51:46;94490.44;;;20.44;57.50
7335;BME280;3708;42.632;23.378;2023-05-25T09:54:13;94493.69;;;20.16;57.17
7335;BME280;3708;42.632;23.378;2023-05-25T09:56:40;94486.38;;;19.99;58.65
7335;BME280;3708;42.632;23.378;2023-05-25T09:59:07;94486.38;;;19.99;58.89
7335;BME280;3708;42.632;23.378;2023-05-25T10:01:34;94477.31;;;20.07;58.87
7335;BME280;3708;42.632;23.378;2023-05-25T10:04:01;94475.19;;;20.37;59.52
7335;BME280;3708;42.632;23.378;2023-05-25T10:06:30;94473.13;;;21.17;58.30
7335;BME280;3708;42.632;23.378;2023-05-25T10:08:57;94478.47;;;21.66;55.48
7335;BME280;3708;42.632;23.378;2023-05-25T10:11:26;94480.34;;;22.08;54.51
7335;BME280;3708;42.632;23.378;2023-05-25T10:13:54;94478.25;;;22.54;54.80
7335;BME280;3708;42.632;23.378;2023-05-25T10:16:25;94463.00;;;22.62;53.83
7335;BME280;3708;42.632;23.378;2023-05-25T10:18:56;94460.09;;;22.11;54.12
7335;BME280;3708;42.632;23.378;2023-05-25T10:21:28;94462.50;;;21.45;57.06
7335;BME280;3708;42.632;23.378;2023-05-25T10:24:02;94441.81;;;22.13;55.95
7335;BME280;3708;42.632;23.378;2023-05-25T10:26:33;94448.84;;;22.58;53.96
7335;BME280;3708;42.632;23.378;2023-05-25T10:29:02;94448.97;;;22.33;55.99
7335;BME280;3708;42.632;23.378;2023-05-25T10:31:30;94445.44;;;23.23;53.07
7335;BME280;3708;42.632;23.378;2023-05-25T10:33:58;94442.47;;;23.14;53.27
7335;BME280;3708;42.632;23.378;2023-05-25T10:36:26;94438.41;;;22.88;53.56
7335;BME280;3708;42.632;23.378;2023-05-25T10:38:57;94435.13;;;22.63;53.58
7335;BME280;3708;42.632;23.378;2023-05-25T10:41:24;94423.28;;;22.67;54.53
7335;BME280;3708;42.632;23.378;2023-05-25T10:43:51;94427.41;;;23.37;53.54
7335;BME280;3708;42.632;23.378;2023-05-25T10:46:20;94422.94;;;22.62;54.53
7335;BME280;3708;42.632;23.378;2023-05-25T10:48:49;94414.69;;;22.28;52.48
7335;BME280;3708;42.632;23.378;2023-05-25T10:51:18;94417.59;;;22.65;52.85
7335;BME280;3708;42.632;23.378;2023-05-25T10:53:46;94420.47;;;22.13;52.07
7335;BME280;3708;42.632;23.378;2023-05-25T10:56:16;94409.13;;;21.87;54.84
7335;BME280;3708;42.632;23.378;2023-05-25T10:58:45;94408.00;;;21.57;54.56
7335;BME280;3708;42.632;23.378;2023-05-25T11:01:13;94405.94;;;22.24;52.71
7335;BME280;3708;42.632;23.378;2023-05-25T11:03:47;94409.25;;;22.53;50.83
7335;BME280;3708;42.632;23.378;2023-05-25T11:06:15;94400.72;;;22.79;50.76
7335;BME280;3708;42.632;23.378;2023-05-25T11:08:50;94406.72;;;23.45;49.64
7335;BME280;3708;42.632;23.378;2023-05-25T11:11:18;94402.78;;;23.57;48.95
7335;BME280;3708;42.632;23.378;2023-05-25T11:13:47;94408.75;;;23.71;48.93
7335;BME280;3708;42.632;23.378;2023-05-25T11:16:19;94404.47;;;23.81;49.01
7335;BME280;3708;42.632;23.378;2023-05-25T11:18:53;94401.53;;;24.05;47.20
7335;BME280;3708;42.632;23.378;2023-05-25T11:21:42;94403.81;;;24.07;47.38
7335;BME280;3708;42.632;23.378;2023-05-25T11:24:13;94404.44;;;24.18;47.25
7335;BME280;3708;42.632;23.378;2023-05-25T11:26:59;94405.69;;;24.10;48.56
7335;BME280;3708;42.632;23.378;2023-05-25T11:29:30;94395.22;;;23.89;49.42
7335;BME280;3708;42.632;23.378;2023-05-25T11:31:57;94403.13;;;23.99;49.13
7335;BME280;3708;42.632;23.378;2023-05-25T11:34:25;94412.19;;;24.09;48.61
7335;BME280;3708;42.632;23.378;2023-05-25T11:36:53;94404.97;;;24.02;48.46
7335;BME280;3708;42.632;23.378;2023-05-25T11:39:22;94411.97;;;24.30;47.93
7335;BME280;3708;42.632;23.378;2023-05-25T11:41:51;94404.06;;;22.94;50.94
7335;BME280;3708;42.632;23.378;2023-05-25T11:44:28;94398.94;;;22.55;51.49
7335;BME280;3708;42.632;23.378;2023-05-25T11:46:59;94399.97;;;21.74;51.59
7335;BME280;3708;42.632;23.378;2023-05-25T11:49:26;94399.66;;;21.37;53.20
7335;BME280;3708;42.632;23.378;2023-05-25T11:51:55;94388.50;;;22.06;51.29
7335;BME280;3708;42.632;23.378;2023-05-25T11:54:24;94401.50;;;21.89;49.91
7335;BME280;3708;42.632;23.378;2023-05-25T11:56:51;94403.38;;;21.96;50.66
7335;BME280;3708;42.632;23.378;2023-05-25T11:59:21;94407.59;;;21.72;49.63
7335;BME280;3708;42.632;23.378;2023-05-25T12:02:00;94402.13;;;22.22;49.02
7335;BME280;3708;42.632;23.378;2023-05-25T12:04:27;94401.22;;;22.49;47.98
7335;BME280;3708;42.632;23.378;2023-05-25T12:07:00;94400.31;;;22.08;48.81
7335;BME280;3708;42.632;23.378;2023-05-25T12:09:28;94397.34;;;21.64;50.88
7335;BME280;3708;42.632;23.378;2023-05-25T12:11:55;94397.88;;;22.38;50.09
7335;BME280;3708;42.632;23.378;2023-05-25T12:14:22;94386.19;;;23.31;48.49
7335;BME280;3708;42.632;23.378;2023-05-25T12:16:50;94392.25;;;23.39;46.95
7335;BME280;3708;42.632;23.378;2023-05-25T12:19:18;94388.38;;;24.18;44.07
7335;BME280;3708;42.632;23.378;2023-05-25T12:21:46;94396.03;;;24.19;43.44
7335;BME280;3708;42.632;23.378;2023-05-25T12:24:17;94379.72;;;24.37;43.26
7335;BME280;3708;42.632;23.378;2023-05-25T12:26:47;94378.16;;;24.40;42.44
7335;BME280;3708;42.632;23.378;2023-05-25T12:29:14;94373.28;;;25.38;40.50
7335;BME280;3708;42.632;23.378;2023-05-25T12:31:41;94362.63;;;25.97;38.78
7335;BME280;3708;42.632;23.378;2023-05-25T12:34:09;94353.25;;;26.44;39.20
7335;BME280;3708;42.632;23.378;2023-05-25T12:36:45;94354.44;;;25.84;38.63
7335;BME280;3708;42.632;23.378;2023-05-25T12:39:14;94350.09;;;25.90;39.13
7335;BME280;3708;42.632;23.378;2023-05-25T12:41:47;94351.69;;;25.68;39.00
7335;BME280;3708;42.632;23.378;2023-05-25T12:44:18;94339.25;;;26.53;38.78
7335;BME280;3708;42.632;23.378;2023-05-25T12:46:47;94338.41;;;26.39;38.65
7335;BME280;3708;42.632;23.378;2023-05-25T12:49:24;94337.28;;;26.73;37.99
7335;BME280;3708;42.632;23.378;2023-05-25T12:51:52;94345.19;;;27.12;35.93
7335;BME280;3708;42.632;23.378;2023-05-25T12:54:41;94331.47;;;26.03;37.71
7335;BME280;3708;42.632;23.378;2023-05-25T12:57:11;94325.47;;;26.51;37.38
7335;BME280;3708;42.632;23.378;2023-05-25T12:59:39;94330.50;;;25.73;38.25
7335;BME280;3708;42.632;23.378;2023-05-25T13:02:07;94317.97;;;27.10;35.87
7335;BME280;3708;42.632;23.378;2023-05-25T13:04:34;94318.50;;;26.89;36.06
7335;BME280;3708;42.632;23.378;2023-05-25T13:07:04;94317.38;;;27.18;35.11
7335;BME280;3708;42.632;23.378;2023-05-25T13:09:31;94304.84;;;26.64;37.04
7335;BME280;3708;42.632;23.378;2023-05-25T13:11:58;94297.66;;;26.93;37.21
7335;BME280;3708;42.632;23.378;2023-05-25T13:14:26;94288.31;;;27.58;34.44
7335;BME280;3708;42.632;23.378;2023-05-25T13:16:53;94299.22;;;27.67;34.63
7335;BME280;3708;42.632;23.378;2023-05-25T13:19:22;94289.88;;;27.43;34.07